sensor_id;sensor_type;location;lat;lon;timestamp;pressure;altitude;pressure_sealevel;temperature;humidity
78373;BME280;67656;52.074;4.758;2023-08-08T00:01:06;101459.34;;;17.27;100.00
78373;BME280;67656;52.074;4.758;2023-08-08T00:06:06;101461.28;;;17.42;100.00
78373;BME280;67656;52.074;4.758;2023-08-08T00:11:07;101457.16;;;17.54;100.00
78373;BME280;67656;52.074;4.758;2023-08-08T00:16:07;101459.91;;;17.53;100.00
78373;BME280;67656;52.074;4.758;2023-08-08T00:21:07;101456.66;;;17.46;100.00
78373;BME280;67656;52.074;4.758;2023-08-08T00:26:08;101454.72;;;17.49;100.00
78373;BME280;67656;52.074;4.758;2023-08-08T00:31:08;101454.84;;;17.46;100.00
78373;BME280;67656;52.074;4.758;2023-08-08T00:36:09;101453.19;;;17.44;100.00
78373;BME280;67656;52.074;4.758;2023-08-08T00:41:09;101448.88;;;17.41;100.00
78373;BME280;67656;52.074;4.758;2023-08-08T00:46:10;101457.59;;;17.45;100.00
78373;BME280;67656;52.074;4.758;2023-08-08T00:51:10;101452.63;;;17.37;100.00
78373;BME280;67656;52.074;4.758;2023-08-08T00:56:14;101444.19;;;17.27;100.00
78373;BME280;67656;52.074;4.758;2023-08-08T01:01:17;101439.94;;;17.23;100.00
78373;BME280;67656;52.074;4.758;2023-08-08T01:11:37;101438.06;;;16.85;100.00
78373;BME280;67656;52.074;4.758;2023-08-08T01:16:39;101435.69;;;16.79;100.00
78373;BME280;67656;52.074;4.758;2023-08-08T01:21:41;101437.47;;;16.79;100.00
78373;BME280;67656;52.074;4.758;2023-08-08T01:26:45;101440.22;;;16.77;100.00
78373;BME280;67656;52.074;4.758;2023-08-08T01:31:45;101430.47;;;16.76;100.00
78373;BME280;67656;52.074;4.758;2023-08-08T01:37:09;101426.50;;;16.66;100.00
78373;BME280;67656;52.074;4.758;2023-08-08T01:42:12;101427.28;;;16.68;100.00
78373;BME280;67656;52.074;4.758;2023-08-08T01:47:14;101413.59;;;16.56;100.00
78373;BME280;67656;52.074;4.758;2023-08-08T01:52:14;101417.03;;;16.58;100.00
78373;BME280;67656;52.074;4.758;2023-08-08T01:57:15;101411.47;;;16.44;100.00
78373;BME280;67656;52.074;4.758;2023-08-08T02:02:16;101403.72;;;16.38;100.00
78373;BME280;67656;52.074;4.758;2023-08-08T02:12:29;101394.13;;;16.34;100.00
78373;BME280;67656;52.074;4.758;2023-08-08T02:17:29;101396.25;;;16.25;100.00
78373;BME280;67656;52.074;4.758;2023-08-08T02:22:30;101398.00;;;16.06;100.00
78373;BME280;67656;52.074;4.758;2023-08-08T02:27:31;101391.78;;;15.85;100.00
78373;BME280;67656;52.074;4.758;2023-08-08T02:32:31;101390.94;;;15.60;100.00
78373;BME280;67656;52.074;4.758;2023-08-08T02:37:47;101386.91;;;15.50;100.00
78373;BME280;67656;52.074;4.758;2023-08-08T02:42:50;101392.13;;;15.53;100.00
78373;BME280;67656;52.074;4.758;2023-08-08T02:47:50;101392.84;;;15.57;100.00
78373;BME280;67656;52.074;4.758;2023-08-08T02:52:51;101383.94;;;15.58;100.00
78373;BME280;67656;52.074;4.758;2023-08-08T02:57:54;101386.19;;;15.69;100.00
78373;BME280;67656;52.074;4.758;2023-08-08T03:02:55;101378.97;;;15.71;100.00
78373;BME280;67656;52.074;4.758;2023-08-08T03:07:55;101388.16;;;15.63;100.00
78373;BME280;67656;52.074;4.758;2023-08-08T03:12:58;101376.78;;;15.60;100.00
78373;BME280;67656;52.074;4.758;2023-08-08T03:17:59;101376.78;;;15.60;100.00
78373;BME280;67656;52.074;4.758;2023-08-08T03:23:00;101375.66;;;15.65;100.00
78373;BME280;67656;52.074;4.758;2023-08-08T03:28:02;101371.06;;;15.69;100.00
78373;BME280;67656;52.074;4.758;2023-08-08T03:33:03;101372.06;;;15.66;100.00
78373;BME280;67656;52.074;4.758;2023-08-08T03:38:04;101372.06;;;15.66;100.00
78373;BME280;67656;52.074;4.758;2023-08-08T03:43:05;101364.28;;;15.62;100.00
78373;BME280;67656;52.074;4.758;2023-08-08T03:48:06;101355.00;;;15.50;100.00
78373;BME280;67656;52.074;4.758;2023-08-08T03:53:06;101360.81;;;15.38;100.00
78373;BME280;67656;52.074;4.758;2023-08-08T03:58:07;101354.34;;;15.21;100.00
78373;BME280;67656;52.074;4.758;2023-08-08T04:03:08;101352.81;;;15.15;100.00
78373;BME280;67656;52.074;4.758;2023-08-08T04:08:09;101359.56;;;15.24;100.00
78373;BME280;67656;52.074;4.758;2023-08-08T04:13:10;101352.13;;;15.32;100.00
78373;BME280;67656;52.074;4.758;2023-08-08T04:18:10;101352.28;;;15.29;100.00
78373;BME280;67656;52.074;4.758;2023-08-08T04:23:11;101352.31;;;15.28;100.00
78373;BME280;67656;52.074;4.758;2023-08-08T04:28:11;101338.78;;;15.12;100.00
78373;BME280;67656;52.074;4.758;2023-08-08T04:33:11;101341.03;;;15.23;100.00
78373;BME280;67656;52.074;4.758;2023-08-08T04:38:13;101340.94;;;15.24;100.00
78373;BME280;67656;52.074;4.758;2023-08-08T04:43:14;101345.63;;;15.17;100.00
78373;BME280;67656;52.074;4.758;2023-08-08T04:48:14;101358.09;;;15.17;100.00
78373;BME280;67656;52.074;4.758;2023-08-08T04:53:15;101358.19;;;15.14;100.00
78373;BME280;67656;52.074;4.758;2023-08-08T04:58:15;101356.09;;;15.22;100.00
78373;BME280;67656;52.074;4.758;2023-08-08T05:03:15;101341.25;;;15.39;100.00
78373;BME280;67656;52.074;4.758;2023-08-08T05:08:16;101358.47;;;15.52;100.00
78373;BME280;67656;52.074;4.758;2023-08-08T05:13:17;101350.88;;;15.43;100.00
78373;BME280;67656;52.074;4.758;2023-08-08T05:18:17;101354.31;;;15.45;100.00
78373;BME280;67656;52.074;4.758;2023-08-08T05:23:17;101343.84;;;15.40;100.00
78373;BME280;67656;52.074;4.758;2023-08-08T05:28:18;101354.00;;;15.30;100.00
78373;BME280;67656;52.074;4.758;2023-08-08T05:33:18;101359.34;;;15.30;100.00
78373;BME280;67656;52.074;4.758;2023-08-08T05:38:19;101357.09;;;15.42;100.00
78373;BME280;67656;52.074;4.758;2023-08-08T05:43:19;101356.47;;;15.57;100.00
78373;BME280;67656;52.074;4.758;2023-08-08T05:48:19;101360.38;;;16.13;100.00
78373;BME280;67656;52.074;4.758;2023-08-08T05:53:20;101364.91;;;16.72;100.00
78373;BME280;67656;52.074;4.758;2023-08-08T05:58:20;101363.28;;;16.88;100.00
78373;BME280;67656;52.074;4.758;2023-08-08T06:03:21;101366.19;;;17.22;100.00
78373;BME280;67656;52.074;4.758;2023-08-08T06:08:21;101359.72;;;17.09;100.00
78373;BME280;67656;52.074;4.758;2023-08-08T06:13:22;101365.13;;;17.07;100.00
78373;BME280;67656;52.074;4.758;2023-08-08T06:18:22;101370.88;;;16.98;100.00
78373;BME280;67656;52.074;4.758;2023-08-08T06:23:23;101366.03;;;17.44;100.00
78373;BME280;67656;52.074;4.758;2023-08-08T06:28:23;101371.97;;;17.32;100.00
78373;BME280;67656;52.074;4.758;2023-08-08T06:33:24;101370.66;;;17.22;100.00
78373;BME280;67656;52.074;4.758;2023-08-08T06:38:26;101366.75;;;17.29;100.00
78373;BME280;67656;52.074;4.758;2023-08-08T06:43:27;101366.19;;;17.22;100.00
78373;BME280;67656;52.074;4.758;2023-08-08T06:48:27;101368.91;;;17.76;100.00
78373;BME280;67656;52.074;4.758;2023-08-08T06:53:28;101369.84;;;17.75;100.00
78373;BME280;67656;52.074;4.758;2023-08-08T06:58:28;101374.59;;;18.40;100.00
78373;BME280;67656;52.074;4.758;2023-08-08T07:03:28;101373.41;;;18.80;100.00
78373;BME280;67656;52.074;4.758;2023-08-08T07:08:29;101374.78;;;18.87;100.00
78373;BME280;67656;52.074;4.758;2023-08-08T07:13:30;101369.59;;;19.33;100.00
78373;BME280;67656;52.074;4.758;2023-08-08T07:18:31;101369.66;;;20.25;100.00
78373;BME280;67656;52.074;4.758;2023-08-08T07:23:32;101367.28;;;19.74;100.00
78373;BME280;67656;52.074;4.758;2023-08-08T07:28:32;101365.78;;;19.22;100.00
78373;BME280;67656;52.074;4.758;2023-08-08T07:33:33;101364.13;;;19.51;100.00
78373;BME280;67656;52.074;4.758;2023-08-08T07:38:34;101355.84;;;20.02;100.00
78373;BME280;67656;52.074;4.758;2023-08-08T07:43:36;101356.66;;;20.33;100.00
78373;BME280;67656;52.074;4.758;2023-08-08T07:48:36;101345.03;;;20.78;100.00
78373;BME280;67656;52.074;4.758;2023-08-08T07:53:36;101346.31;;;20.70;100.00
78373;BME280;67656;52.074;4.758;2023-08-08T07:58:40;101350.59;;;20.15;100.00
78373;BME280;67656;52.074;4.758;2023-08-08T08:03:52;101347.75;;;20.18;100.00
78373;BME280;67656;52.074;4.758;2023-08-08T08:08:52;101350.16;;;19.92;100.00
78373;BME280;67656;52.074;4.758;2023-08-08T08:13:53;101360.59;;;21.00;100.00
78373;BME280;67656;52.074;4.758;2023-08-08T08:18:53;101350.56;;;21.04;100.00
78373;BME280;67656;52.074;4.758;2023-08-08T08:23:53;101344.50;;;21.00;100.00
78373;BME280;67656;52.074;4.758;2023-08-08T08:29:08;101353.25;;;21.31;100.00
78373;BME280;67656;52.074;4.758;2023-08-08T08:34:09;101345.09;;;20.76;100.00
78373;BME280;67656;52.074;4.758;2023-08-08T08:39:16;101363.03;;;20.16;100.00
78373;BME280;67656;52.074;4.758;2023-08-08T08:44:26;101359.31;;;19.42;100.00
78373;BME280;67656;52.074;4.758;2023-08-08T08:49:31;101360.53;;;20.87;100.00
78373;BME280;67656;52.074;4.758;2023-08-08T08:54:32;101359.44;;;20.32;100.00
78373;BME280;67656;52.074;4.758;2023-08-08T08:59:33;101359.72;;;20.41;100.00
78373;BME280;67656;52.074;4.758;2023-08-08T09:04:33;101367.31;;;21.07;100.00
78373;BME280;67656;52.074;4.758;2023-08-08T09:09:36;101364.78;;;21.60;100.00
78373;BME280;67656;52.074;4.758;2023-08-08T09:14:40;101381.69;;;20.77;100.00
78373;BME280;67656;52.074;4.758;2023-08-08T09:19:44;101364.78;;;21.46;100.00
78373;BME280;67656;52.074;4.758;2023-08-08T09:24:45;101379.75;;;20.50;100.00
78373;BME280;67656;52.074;4.758;2023-08-08T09:29:46;101385.00;;;19.60;100.00
78373;BME280;67656;52.074;4.758;2023-08-08T09:34:46;101373.22;;;19.95;100.00
78373;BME280;67656;52.074;4.758;2023-08-08T09:39:58;101374.22;;;20.97;100.00
78373;BME280;67656;52.074;4.758;2023-08-08T09:44:59;101383.88;;;20.11;100.00
78373;BME280;67656;52.074;4.758;2023-08-08T09:50:01;101373.63;;;20.34;100.00
78373;BME280;67656;52.074;4.758;2023-08-08T09:55:02;101389.03;;;20.00;100.00
78373;BME280;67656;52.074;4.758;2023-08-08T10:00:03;101374.47;;;21.21;100.00
78373;BME280;67656;52.074;4.758;2023-08-08T10:05:09;101377.25;;;21.61;100.00
78373;BME280;67656;52.074;4.758;2023-08-08T10:10:10;101386.91;;;21.22;100.00
78373;BME280;67656;52.074;4.758;2023-08-08T10:15:11;101386.41;;;20.29;100.00
78373;BME280;67656;52.074;4.758;2023-08-08T10:20:11;101380.88;;;20.61;100.00
78373;BME280;67656;52.074;4.758;2023-08-08T10:25:25;101371.72;;;20.94;100.00
78373;BME280;67656;52.074;4.758;2023-08-08T10:30:26;101388.69;;;20.94;100.00
78373;BME280;67656;52.074;4.758;2023-08-08T10:35:35;101391.53;;;21.06;100.00
78373;BME280;67656;52.074;4.758;2023-08-08T10:40:42;101381.38;;;20.67;100.00
78373;BME280;67656;52.074;4.758;2023-08-08T10:45:43;101378.78;;;20.66;100.00
78373;BME280;67656;52.074;4.758;2023-08-08T10:50:44;101372.59;;;21.36;100.00
78373;BME280;67656;52.074;4.758;2023-08-08T10:55:44;101380.63;;;21.36;100.00
78373;BME280;67656;52.074;4.758;2023-08-08T11:00:45;101377.56;;;21.97;100.00
78373;BME280;67656;52.074;4.758;2023-08-08T11:05:46;101380.22;;;21.29;100.00
78373;BME280;67656;52.074;4.758;2023-08-08T11:10:52;101364.78;;;21.60;100.00
78373;BME280;67656;52.074;4.758;2023-08-08T11:16:11;101373.47;;;21.37;100.00
78373;BME280;67656;52.074;4.758;2023-08-08T11:21:12;101377.13;;;22.03;100.00
78373;BME280;67656;52.074;4.758;2023-08-08T11:31:45;101372.59;;;21.91;100.00
78373;BME280;67656;52.074;4.758;2023-08-08T11:36:52;101380.09;;;21.31;100.00
78373;BME280;67656;52.074;4.758;2023-08-08T11:41:53;101367.66;;;21.85;100.00
78373;BME280;67656;52.074;4.758;2023-08-08T11:47:24;101373.63;;;22.16;100.00
78373;BME280;67656;52.074;4.758;2023-08-08T11:52:28;101372.19;;;21.97;100.00
78373;BME280;67656;52.074;4.758;2023-08-08T11:57:39;101370.47;;;21.96;100.00
78373;BME280;67656;52.074;4.758;2023-08-08T12:02:45;101362.09;;;21.60;100.00
78373;BME280;67656;52.074;4.758;2023-08-08T12:07:49;101360.81;;;20.82;100.00
78373;BME280;67656;52.074;4.758;2023-08-08T12:12:54;101374.38;;;21.50;100.00
78373;BME280;67656;52.074;4.758;2023-08-08T12:17:57;101365.78;;;21.03;100.00
78373;BME280;67656;52.074;4.758;2023-08-08T12:23:07;101362.34;;;21.70;100.00
78373;BME280;67656;52.074;4.758;2023-08-08T12:28:10;101370.66;;;21.38;100.00
78373;BME280;67656;52.074;4.758;2023-08-08T12:33:13;101373.94;;;21.43;100.00
78373;BME280;67656;52.074;4.758;2023-08-08T12:38:15;101370.47;;;21.14;100.00
78373;BME280;67656;52.074;4.758;2023-08-08T12:43:15;101374.19;;;20.53;100.00
78373;BME280;67656;52.074;4.758;2023-08-08T12:48:16;101368.63;;;21.84;100.00
78373;BME280;67656;52.074;4.758;2023-08-08T12:53:16;101377.72;;;21.54;100.00
78373;BME280;67656;52.074;4.758;2023-08-08T12:58:17;101387.25;;;20.60;100.00
78373;BME280;67656;52.074;4.758;2023-08-08T13:03:18;101380.97;;;20.00;100.00
78373;BME280;67656;52.074;4.758;2023-08-08T13:08:18;101373.19;;;20.25;100.00
78373;BME280;67656;52.074;4.758;2023-08-08T13:13:19;101376.59;;;20.58;100.00
78373;BME280;67656;52.074;4.758;2023-08-08T13:18:19;101381.47;;;20.51;100.00
78373;BME280;67656;52.074;4.758;2023-08-08T13:23:20;101391.84;;;20.86;100.00
78373;BME280;67656;52.074;4.758;2023-08-08T13:28:20;101383.97;;;20.54;100.00
78373;BME280;67656;52.074;4.758;2023-08-08T13:33:21;101391.81;;;21.15;100.00
78373;BME280;67656;52.074;4.758;2023-08-08T13:38:21;101383.75;;;21.30;100.00
78373;BME280;67656;52.074;4.758;2023-08-08T13:43:22;101382.22;;;21.26;100.00
78373;BME280;67656;52.074;4.758;2023-08-08T13:48:22;101378.16;;;21.75;100.00
78373;BME280;67656;52.074;4.758;2023-08-08T13:53:22;101387.00;;;21.35;100.00
78373;BME280;67656;52.074;4.758;2023-08-08T13:58:23;101388.13;;;21.04;100.00
78373;BME280;67656;52.074;4.758;2023-08-08T14:03:24;101394.34;;;21.04;100.00
78373;BME280;67656;52.074;4.758;2023-08-08T14:08:24;101393.19;;;21.50;100.00
78373;BME280;67656;52.074;4.758;2023-08-08T14:13:25;101386.88;;;21.78;100.00
78373;BME280;67656;52.074;4.758;2023-08-08T14:18:25;101380.38;;;22.08;99.90
78373;BME280;67656;52.074;4.758;2023-08-08T14:23:26;101384.97;;;20.82;100.00
78373;BME280;67656;52.074;4.758;2023-08-08T14:28:26;101381.63;;;21.35;99.34
78373;BME280;67656;52.074;4.758;2023-08-08T14:33:27;101373.78;;;21.32;100.00
78373;BME280;67656;52.074;4.758;2023-08-08T14:38:27;101360.28;;;21.61;100.00
78373;BME280;67656;52.074;4.758;2023-08-08T14:43:28;101360.53;;;21.29;100.00
78373;BME280;67656;52.074;4.758;2023-08-08T14:48:28;101356.38;;;21.10;100.00
78373;BME280;67656;52.074;4.758;2023-08-08T14:53:29;101371.09;;;21.32;99.25
78373;BME280;67656;52.074;4.758;2023-08-08T14:58:29;101375.34;;;21.22;100.00
78373;BME280;67656;52.074;4.758;2023-08-08T15:03:30;101380.16;;;21.44;100.00
78373;BME280;67656;52.074;4.758;2023-08-08T15:08:30;101372.34;;;21.26;100.00
78373;BME280;67656;52.074;4.758;2023-08-08T15:13:30;101376.09;;;22.32;100.00
78373;BME280;67656;52.074;4.758;2023-08-08T15:18:31;101370.81;;;21.64;100.00
78373;BME280;67656;52.074;4.758;2023-08-08T15:23:33;101380.09;;;21.31;100.00
78373;BME280;67656;52.074;4.758;2023-08-08T15:28:34;101383.41;;;21.49;100.00
78373;BME280;67656;52.074;4.758;2023-08-08T15:33:34;101392.84;;;20.85;100.00
78373;BME280;67656;52.074;4.758;2023-08-08T15:38:35;101383.53;;;20.17;100.00
78373;BME280;67656;52.074;4.758;2023-08-08T15:43:35;101388.16;;;19.99;100.00
78373;BME280;67656;52.074;4.758;2023-08-08T15:48:36;101394.97;;;20.05;100.00
78373;BME280;67656;52.074;4.758;2023-08-08T15:53:36;101388.22;;;20.14;100.00
78373;BME280;67656;52.074;4.758;2023-08-08T15:58:37;101393.81;;;19.94;100.00
78373;BME280;67656;52.074;4.758;2023-08-08T16:03:37;101382.13;;;19.79;100.00
78373;BME280;67656;52.074;4.758;2023-08-08T16:08:37;101376.19;;;19.74;100.00
78373;BME280;67656;52.074;4.758;2023-08-08T16:13:38;101386.25;;;19.39;100.00
78373;BME280;67656;52.074;4.758;2023-08-08T16:18:38;101379.59;;;19.14;100.00
78373;BME280;67656;52.074;4.758;2023-08-08T16:23:38;101388.13;;;19.05;100.00
78373;BME280;67656;52.074;4.758;2023-08-08T16:28:39;101393.03;;;18.63;100.00
78373;BME280;67656;52.074;4.758;2023-08-08T16:33:39;101374.75;;;18.37;100.00
78373;BME280;67656;52.074;4.758;2023-08-08T16:38:40;101373.09;;;18.17;100.00
78373;BME280;67656;52.074;4.758;2023-08-08T16:43:41;101379.28;;;18.35;100.00
78373;BME280;67656;52.074;4.758;2023-08-08T16:48:41;101375.88;;;18.33;100.00
78373;BME280;67656;52.074;4.758;2023-08-08T16:53:42;101366.31;;;18.45;100.00
78373;BME280;67656;52.074;4.758;2023-08-08T16:58:42;101362.56;;;18.32;100.00
78373;BME280;67656;52.074;4.758;2023-08-08T17:03:43;101367.84;;;18.33;100.00
78373;BME280;67656;52.074;4.758;2023-08-08T17:08:43;101373.81;;;18.38;100.00
78373;BME280;67656;52.074;4.758;2023-08-08T17:13:43;101361.25;;;18.56;100.00
78373;BME280;67656;52.074;4.758;2023-08-08T17:18:44;101369.88;;;18.10;100.00
78373;BME280;67656;52.074;4.758;2023-08-08T17:23:44;101365.66;;;17.70;100.00
78373;BME280;67656;52.074;4.758;2023-08-08T17:28:45;101363.97;;;17.49;100.00
78373;BME280;67656;52.074;4.758;2023-08-08T17:33:45;101369.50;;;17.08;100.00
78373;BME280;67656;52.074;4.758;2023-08-08T17:38:45;101365.56;;;16.77;100.00
78373;BME280;67656;52.074;4.758;2023-08-08T17:43:46;101349.19;;;17.06;100.00
78373;BME280;67656;52.074;4.758;2023-08-08T17:48:46;101361.31;;;16.73;100.00
78373;BME280;67656;52.074;4.758;2023-08-08T17:53:47;101356.06;;;16.91;100.00
78373;BME280;67656;52.074;4.758;2023-08-08T17:58:47;101361.06;;;16.58;100.00
78373;BME280;67656;52.074;4.758;2023-08-08T18:03:48;101355.34;;;16.47;100.00
78373;BME280;67656;52.074;4.758;2023-08-08T18:08:48;101358.59;;;16.54;100.00
78373;BME280;67656;52.074;4.758;2023-08-08T18:13:49;101366.56;;;16.55;100.00
78373;BME280;67656;52.074;4.758;2023-08-08T18:18:49;101348.53;;;16.61;100.00
78373;BME280;67656;52.074;4.758;2023-08-08T18:23:49;101345.75;;;16.24;100.00
78373;BME280;67656;52.074;4.758;2023-08-08T18:28:50;101343.66;;;16.10;100.00
78373;BME280;67656;52.074;4.758;2023-08-08T18:33:57;101337.41;;;16.32;100.00
78373;BME280;67656;52.074;4.758;2023-08-08T18:38:57;101330.69;;;16.02;100.00
78373;BME280;67656;52.074;4.758;2023-08-08T18:43:58;101327.56;;;16.13;100.00
78373;BME280;67656;52.074;4.758;2023-08-08T18:48:59;101319.78;;;16.08;100.00
78373;BME280;67656;52.074;4.758;2023-08-08T18:53:59;101327.56;;;16.13;100.00
78373;BME280;67656;52.074;4.758;2023-08-08T18:59:00;101314.50;;;16.07;100.00
78373;BME280;67656;52.074;4.758;2023-08-08T19:04:00;101327.81;;;16.07;100.00
78373;BME280;67656;52.074;4.758;2023-08-08T19:09:00;101331.16;;;16.12;100.00
78373;BME280;67656;52.074;4.758;2023-08-08T19:14:01;101333.00;;;16.10;100.00
78373;BME280;67656;52.074;4.758;2023-08-08T19:19:02;101332.72;;;15.95;100.00
78373;BME280;67656;52.074;4.758;2023-08-08T19:24:02;101308.63;;;15.78;100.00
78373;BME280;67656;52.074;4.758;2023-08-08T19:29:03;101302.63;;;15.73;100.00
78373;BME280;67656;52.074;4.758;2023-08-08T19:34:04;101305.47;;;15.90;100.00
78373;BME280;67656;52.074;4.758;2023-08-08T19:39:04;101302.16;;;15.84;100.00
78373;BME280;67656;52.074;4.758;2023-08-08T19:44:05;101307.19;;;15.91;100.00
78373;BME280;67656;52.074;4.758;2023-08-08T19:49:05;101320.91;;;16.03;100.00
78373;BME280;67656;52.074;4.758;2023-08-08T19:54:05;101319.09;;;16.03;100.00
78373;BME280;67656;52.074;4.758;2023-08-08T19:59:06;101320.97;;;16.01;100.00
78373;BME280;67656;52.074;4.758;2023-08-08T20:04:06;101329.69;;;16.05;100.00
78373;BME280;67656;52.074;4.758;2023-08-08T20:09:07;101319.06;;;16.05;100.00
78373;BME280;67656;52.074;4.758;2023-08-08T20:14:08;101341.59;;;15.96;100.00
78373;BME280;67656;52.074;4.758;2023-08-08T20:19:09;101320.91;;;15.80;100.00
78373;BME280;67656;52.074;4.758;2023-08-08T20:24:09;101333.81;;;15.91;100.00
78373;BME280;67656;52.074;4.758;2023-08-08T20:29:10;101328.41;;;15.93;100.00
78373;BME280;67656;52.074;4.758;2023-08-08T20:34:10;101333.75;;;15.71;100.00
78373;BME280;67656;52.074;4.758;2023-08-08T20:39:11;101342.13;;;15.82;100.00
78373;BME280;67656;52.074;4.758;2023-08-08T20:44:11;101311.81;;;15.88;100.00
78373;BME280;67656;52.074;4.758;2023-08-08T20:49:11;101314.50;;;15.64;100.00
78373;BME280;67656;52.074;4.758;2023-08-08T20:54:12;101307.44;;;15.63;100.00
78373;BME280;67656;52.074;4.758;2023-08-08T20:59:12;101301.19;;;15.64;100.00
78373;BME280;67656;52.074;4.758;2023-08-08T21:04:12;101291.63;;;15.60;100.00
78373;BME280;67656;52.074;4.758;2023-08-08T21:09:13;101290.25;;;15.72;100.00
78373;BME280;67656;52.074;4.758;2023-08-08T21:14:13;101273.91;;;15.81;100.00
78373;BME280;67656;52.074;4.758;2023-08-08T21:19:14;101272.53;;;15.71;100.00
78373;BME280;67656;52.074;4.758;2023-08-08T21:24:14;101276.81;;;15.75;100.00
78373;BME280;67656;52.074;4.758;2023-08-08T21:29:15;101284.53;;;15.81;100.00
78373;BME280;67656;52.074;4.758;2023-08-08T21:34:15;101305.69;;;15.84;100.00
78373;BME280;67656;52.074;4.758;2023-08-08T21:39:16;101301.53;;;15.99;100.00
78373;BME280;67656;52.074;4.758;2023-08-08T21:44:16;101303.75;;;15.89;100.00
78373;BME280;67656;52.074;4.758;2023-08-08T21:49:17;101293.00;;;15.91;100.00
78373;BME280;67656;52.074;4.758;2023-08-08T21:54:17;101299.06;;;15.94;100.00
78373;BME280;67656;52.074;4.758;2023-08-08T21:59:17;101311.84;;;16.07;100.00
78373;BME280;67656;52.074;4.758;2023-08-08T22:04:18;101318.75;;;16.11;100.00
78373;BME280;67656;52.074;4.758;2023-08-08T22:09:18;101319.31;;;15.99;100.00
78373;BME280;67656;52.074;4.758;2023-08-08T22:14:19;101327.56;;;16.13;100.00
78373;BME280;67656;52.074;4.758;2023-08-08T22:19:20;101318.91;;;16.08;100.00
78373;BME280;67656;52.074;4.758;2023-08-08T22:24:20;101302.06;;;16.07;100.00
78373;BME280;67656;52.074;4.758;2023-08-08T22:29:21;101299.94;;;15.95;100.00
78373;BME280;67656;52.074;4.758;2023-08-08T22:34:21;101295.03;;;15.86;100.00
78373;BME280;67656;52.074;4.758;2023-08-08T22:39:21;101294.69;;;15.93;100.00
78373;BME280;67656;52.074;4.758;2023-08-08T22:44:22;101310.09;;;15.85;100.00
78373;BME280;67656;52.074;4.758;2023-08-08T22:49:22;101300.16;;;15.68;100.00
78373;BME280;67656;52.074;4.758;2023-08-08T22:54:23;101287.16;;;15.60;100.00
78373;BME280;67656;52.074;4.758;2023-08-08T22:59:23;101281.25;;;15.54;100.00
78373;BME280;67656;52.074;4.758;2023-08-08T23:04:24;101292.38;;;15.41;100.00
78373;BME280;67656;52.074;4.758;2023-08-08T23:09:24;101287.66;;;15.27;100.00
78373;BME280;67656;52.074;4.758;2023-08-08T23:14:25;101301.06;;;15.24;100.00
78373;BME280;67656;52.074;4.758;2023-08-08T23:19:25;101299.44;;;15.20;100.00
78373;BME280;67656;52.074;4.758;2023-08-08T23:24:25;101307.72;;;15.12;100.00
78373;BME280;67656;52.074;4.758;2023-08-08T23:29:26;101298.56;;;14.97;100.00
78373;BME280;67656;52.074;4.758;2023-08-08T23:34:26;101300.06;;;15.04;100.00
78373;BME280;67656;52.074;4.758;2023-08-08T23:39:27;101303.50;;;15.07;100.00
78373;BME280;67656;52.074;4.758;2023-08-08T23:44:27;101307.34;;;14.99;100.00
78373;BME280;67656;52.074;4.758;2023-08-08T23:49:28;101304.63;;;15.01;100.00
78373;BME280;67656;52.074;4.758;2023-08-08T23:54:28;101298.94;;;14.88;100.00
78373;BME280;67656;52.074;4.758;2023-08-08T23:59:28;101306.00;;;14.89;100.00
